sensor_id;sensor_type;location;lat;lon;timestamp;P1;durP1;ratioP1;P2;durP2;ratioP2
10315;SDS011;5203;48.976;8.306;2023-02-21T00:01:35;9.00;;;7.40;;
10315;SDS011;5203;48.976;8.306;2023-02-21T00:04:19;8.20;;;6.80;;
10315;SDS011;5203;48.976;8.306;2023-02-21T00:07:03;7.87;;;7.13;;
10315;SDS011;5203;48.976;8.306;2023-02-21T00:09:51;7.87;;;7.03;;
10315;SDS011;5203;48.976;8.306;2023-02-21T00:12:36;7.43;;;6.70;;
10315;SDS011;5203;48.976;8.306;2023-02-21T00:15:20;7.73;;;6.93;;
10315;SDS011;5203;48.976;8.306;2023-02-21T00:18:04;7.40;;;6.80;;
10315;SDS011;5203;48.976;8.306;2023-02-21T00:20:48;7.60;;;6.90;;
10315;SDS011;5203;48.976;8.306;2023-02-21T00:23:33;7.53;;;6.77;;
10315;SDS011;5203;48.976;8.306;2023-02-21T00:26:18;7.47;;;6.77;;
10315;SDS011;5203;48.976;8.306;2023-02-21T00:29:04;7.80;;;6.83;;
10315;SDS011;5203;48.976;8.306;2023-02-21T00:31:49;7.30;;;6.60;;
10315;SDS011;5203;48.976;8.306;2023-02-21T00:34:33;7.23;;;6.63;;
10315;SDS011;5203;48.976;8.306;2023-02-21T00:37:17;7.60;;;6.83;;
10315;SDS011;5203;48.976;8.306;2023-02-21T00:40:01;7.77;;;6.93;;
10315;SDS011;5203;48.976;8.306;2023-02-21T00:42:46;9.53;;;7.10;;
10315;SDS011;5203;48.976;8.306;2023-02-21T00:45:30;8.03;;;7.23;;
10315;SDS011;5203;48.976;8.306;2023-02-21T00:48:21;8.17;;;6.80;;
10315;SDS011;5203;48.976;8.306;2023-02-21T00:51:06;7.63;;;6.83;;
10315;SDS011;5203;48.976;8.306;2023-02-21T00:53:50;7.87;;;6.63;;
10315;SDS011;5203;48.976;8.306;2023-02-21T00:56:34;7.87;;;6.00;;
10315;SDS011;5203;48.976;8.306;2023-02-21T00:59:18;7.23;;;6.53;;
10315;SDS011;5203;48.976;8.306;2023-02-21T01:02:03;6.87;;;6.17;;
10315;SDS011;5203;48.976;8.306;2023-02-21T01:04:47;7.60;;;6.17;;
10315;SDS011;5203;48.976;8.306;2023-02-21T01:07:31;6.77;;;6.17;;
10315;SDS011;5203;48.976;8.306;2023-02-21T01:10:16;6.80;;;5.87;;
10315;SDS011;5203;48.976;8.306;2023-02-21T01:13:00;6.40;;;5.70;;
10315;SDS011;5203;48.976;8.306;2023-02-21T01:15:44;10.30;;;6.07;;
10315;SDS011;5203;48.976;8.306;2023-02-21T01:18:29;7.27;;;5.50;;
10315;SDS011;5203;48.976;8.306;2023-02-21T01:21:14;8.20;;;5.90;;
10315;SDS011;5203;48.976;8.306;2023-02-21T01:24:00;6.97;;;5.87;;
10315;SDS011;5203;48.976;8.306;2023-02-21T01:26:44;6.30;;;5.70;;
10315;SDS011;5203;48.976;8.306;2023-02-21T01:29:28;6.33;;;5.73;;
10315;SDS011;5203;48.976;8.306;2023-02-21T01:32:12;9.47;;;6.43;;
10315;SDS011;5203;48.976;8.306;2023-02-21T01:34:57;6.37;;;5.80;;
10315;SDS011;5203;48.976;8.306;2023-02-21T01:37:41;7.40;;;5.73;;
10315;SDS011;5203;48.976;8.306;2023-02-21T01:40:25;6.63;;;5.33;;
10315;SDS011;5203;48.976;8.306;2023-02-21T01:43:14;8.37;;;5.10;;
10315;SDS011;5203;48.976;8.306;2023-02-21T01:45:58;5.87;;;5.00;;
10315;SDS011;5203;48.976;8.306;2023-02-21T01:48:42;6.20;;;5.50;;
10315;SDS011;5203;48.976;8.306;2023-02-21T01:51:27;6.33;;;5.43;;
10315;SDS011;5203;48.976;8.306;2023-02-21T01:54:17;6.40;;;5.30;;
10315;SDS011;5203;48.976;8.306;2023-02-21T01:57:03;6.50;;;5.37;;
10315;SDS011;5203;48.976;8.306;2023-02-21T01:59:49;5.00;;;4.53;;
10315;SDS011;5203;48.976;8.306;2023-02-21T02:02:43;8.00;;;4.80;;
10315;SDS011;5203;48.976;8.306;2023-02-21T02:05:36;5.50;;;5.00;;
10315;SDS011;5203;48.976;8.306;2023-02-21T02:08:22;6.03;;;4.97;;
10315;SDS011;5203;48.976;8.306;2023-02-21T02:11:17;6.07;;;4.63;;
10315;SDS011;5203;48.976;8.306;2023-02-21T02:16:44;5.60;;;5.00;;
10315;SDS011;5203;48.976;8.306;2023-02-21T02:24:59;5.50;;;5.00;;
10315;SDS011;5203;48.976;8.306;2023-02-21T02:27:43;6.03;;;4.67;;
10315;SDS011;5203;48.976;8.306;2023-02-21T02:30:26;7.33;;;5.20;;
10315;SDS011;5203;48.976;8.306;2023-02-21T02:35:56;5.67;;;5.13;;
10315;SDS011;5203;48.976;8.306;2023-02-21T02:41:13;5.33;;;4.83;;
10315;SDS011;5203;48.976;8.306;2023-02-21T02:43:50;5.10;;;4.67;;
10315;SDS011;5203;48.976;8.306;2023-02-21T02:46:23;6.67;;;5.60;;
10315;SDS011;5203;48.976;8.306;2023-02-21T02:48:54;6.20;;;5.37;;
10315;SDS011;5203;48.976;8.306;2023-02-21T02:51:25;5.20;;;4.80;;
10315;SDS011;5203;48.976;8.306;2023-02-21T02:53:51;5.60;;;5.00;;
10315;SDS011;5203;48.976;8.306;2023-02-21T02:56:17;6.33;;;5.60;;
10315;SDS011;5203;48.976;8.306;2023-02-21T02:58:44;5.77;;;5.27;;
10315;SDS011;5203;48.976;8.306;2023-02-21T03:06:36;5.80;;;5.30;;
10315;SDS011;5203;48.976;8.306;2023-02-21T03:09:24;5.93;;;5.03;;
10315;SDS011;5203;48.976;8.306;2023-02-21T03:14:34;5.93;;;5.40;;
10315;SDS011;5203;48.976;8.306;2023-02-21T03:17:06;7.37;;;5.43;;
10315;SDS011;5203;48.976;8.306;2023-02-21T03:19:39;7.47;;;5.47;;
10315;SDS011;5203;48.976;8.306;2023-02-21T03:22:14;6.30;;;5.70;;
10315;SDS011;5203;48.976;8.306;2023-02-21T03:24:44;5.97;;;5.37;;
10315;SDS011;5203;48.976;8.306;2023-02-21T03:27:12;6.73;;;5.40;;
10315;SDS011;5203;48.976;8.306;2023-02-21T03:29:38;6.97;;;5.60;;
10315;SDS011;5203;48.976;8.306;2023-02-21T03:32:08;5.83;;;5.23;;
10315;SDS011;5203;48.976;8.306;2023-02-21T03:34:38;5.83;;;4.87;;
10315;SDS011;5203;48.976;8.306;2023-02-21T03:37:08;5.27;;;4.57;;
10315;SDS011;5203;48.976;8.306;2023-02-21T03:39:41;7.17;;;5.23;;
10315;SDS011;5203;48.976;8.306;2023-02-21T03:42:07;6.00;;;5.33;;
10315;SDS011;5203;48.976;8.306;2023-02-21T03:44:33;6.83;;;5.07;;
10315;SDS011;5203;48.976;8.306;2023-02-21T03:46:58;6.23;;;4.97;;
10315;SDS011;5203;48.976;8.306;2023-02-21T03:49:24;5.80;;;5.13;;
10315;SDS011;5203;48.976;8.306;2023-02-21T03:51:49;5.47;;;4.97;;
10315;SDS011;5203;48.976;8.306;2023-02-21T03:54:15;6.97;;;5.27;;
10315;SDS011;5203;48.976;8.306;2023-02-21T03:56:41;5.87;;;5.27;;
10315;SDS011;5203;48.976;8.306;2023-02-21T03:59:06;5.90;;;5.30;;
10315;SDS011;5203;48.976;8.306;2023-02-21T04:01:32;5.50;;;4.77;;
10315;SDS011;5203;48.976;8.306;2023-02-21T04:03:58;7.63;;;5.57;;
10315;SDS011;5203;48.976;8.306;2023-02-21T04:06:23;5.67;;;5.10;;
10315;SDS011;5203;48.976;8.306;2023-02-21T04:08:49;7.57;;;5.07;;
10315;SDS011;5203;48.976;8.306;2023-02-21T04:11:19;5.57;;;4.90;;
10315;SDS011;5203;48.976;8.306;2023-02-21T04:13:46;6.03;;;5.33;;
10315;SDS011;5203;48.976;8.306;2023-02-21T04:16:11;7.30;;;5.67;;
10315;SDS011;5203;48.976;8.306;2023-02-21T04:18:37;5.67;;;5.17;;
10315;SDS011;5203;48.976;8.306;2023-02-21T04:21:03;5.73;;;5.00;;
10315;SDS011;5203;48.976;8.306;2023-02-21T04:23:28;5.10;;;4.60;;
10315;SDS011;5203;48.976;8.306;2023-02-21T04:25:54;6.17;;;5.57;;
10315;SDS011;5203;48.976;8.306;2023-02-21T04:28:20;5.27;;;4.73;;
10315;SDS011;5203;48.976;8.306;2023-02-21T04:30:45;7.33;;;5.60;;
10315;SDS011;5203;48.976;8.306;2023-02-21T04:33:11;6.70;;;5.33;;
10315;SDS011;5203;48.976;8.306;2023-02-21T04:35:37;5.60;;;5.10;;
10315;SDS011;5203;48.976;8.306;2023-02-21T04:38:02;5.60;;;5.10;;
10315;SDS011;5203;48.976;8.306;2023-02-21T04:40:28;5.60;;;5.10;;
10315;SDS011;5203;48.976;8.306;2023-02-21T04:42:53;5.70;;;4.87;;
10315;SDS011;5203;48.976;8.306;2023-02-21T04:45:19;6.90;;;5.23;;
10315;SDS011;5203;48.976;8.306;2023-02-21T04:47:45;5.23;;;4.77;;
10315;SDS011;5203;48.976;8.306;2023-02-21T04:50:11;5.50;;;5.00;;
10315;SDS011;5203;48.976;8.306;2023-02-21T04:52:36;7.47;;;4.80;;
10315;SDS011;5203;48.976;8.306;2023-02-21T04:55:05;6.13;;;5.53;;
10315;SDS011;5203;48.976;8.306;2023-02-21T04:57:31;6.40;;;5.40;;
10315;SDS011;5203;48.976;8.306;2023-02-21T04:59:57;6.27;;;5.27;;
10315;SDS011;5203;48.976;8.306;2023-02-21T05:02:23;7.70;;;5.50;;
10315;SDS011;5203;48.976;8.306;2023-02-21T05:04:49;6.00;;;5.40;;
10315;SDS011;5203;48.976;8.306;2023-02-21T05:07:15;6.93;;;6.17;;
10315;SDS011;5203;48.976;8.306;2023-02-21T05:09:41;5.83;;;5.30;;
10315;SDS011;5203;48.976;8.306;2023-02-21T05:12:07;6.90;;;5.10;;
10315;SDS011;5203;48.976;8.306;2023-02-21T05:14:38;7.30;;;5.20;;
10315;SDS011;5203;48.976;8.306;2023-02-21T05:17:05;6.70;;;5.33;;
10315;SDS011;5203;48.976;8.306;2023-02-21T05:19:30;6.30;;;5.07;;
10315;SDS011;5203;48.976;8.306;2023-02-21T05:21:57;5.80;;;5.30;;
10315;SDS011;5203;48.976;8.306;2023-02-21T05:24:24;5.47;;;4.83;;
10315;SDS011;5203;48.976;8.306;2023-02-21T05:26:51;5.40;;;4.90;;
10315;SDS011;5203;48.976;8.306;2023-02-21T05:29:18;6.77;;;5.67;;
10315;SDS011;5203;48.976;8.306;2023-02-21T05:31:44;6.40;;;5.03;;
10315;SDS011;5203;48.976;8.306;2023-02-21T05:34:11;6.07;;;5.37;;
10315;SDS011;5203;48.976;8.306;2023-02-21T05:36:37;5.63;;;5.13;;
10315;SDS011;5203;48.976;8.306;2023-02-21T05:39:03;6.40;;;5.40;;
10315;SDS011;5203;48.976;8.306;2023-02-21T05:41:30;6.10;;;5.50;;
10315;SDS011;5203;48.976;8.306;2023-02-21T05:43:56;7.67;;;5.40;;
10315;SDS011;5203;48.976;8.306;2023-02-21T05:46:27;5.90;;;5.33;;
10315;SDS011;5203;48.976;8.306;2023-02-21T05:48:54;7.17;;;5.30;;
10315;SDS011;5203;48.976;8.306;2023-02-21T05:51:21;6.37;;;5.77;;
10315;SDS011;5203;48.976;8.306;2023-02-21T05:53:47;5.67;;;5.03;;
10315;SDS011;5203;48.976;8.306;2023-02-21T05:56:14;5.80;;;5.20;;
10315;SDS011;5203;48.976;8.306;2023-02-21T05:58:40;8.23;;;5.07;;
10315;SDS011;5203;48.976;8.306;2023-02-21T06:01:06;8.57;;;5.57;;
10315;SDS011;5203;48.976;8.306;2023-02-21T06:03:32;5.70;;;5.17;;
10315;SDS011;5203;48.976;8.306;2023-02-21T06:05:58;8.77;;;5.73;;
10315;SDS011;5203;48.976;8.306;2023-02-21T06:08:23;6.20;;;4.93;;
10315;SDS011;5203;48.976;8.306;2023-02-21T06:10:49;7.67;;;5.57;;
10315;SDS011;5203;48.976;8.306;2023-02-21T06:13:15;5.73;;;5.10;;
10315;SDS011;5203;48.976;8.306;2023-02-21T06:15:41;6.00;;;5.50;;
10315;SDS011;5203;48.976;8.306;2023-02-21T06:18:06;6.83;;;5.03;;
10315;SDS011;5203;48.976;8.306;2023-02-21T06:20:32;7.03;;;5.40;;
10315;SDS011;5203;48.976;8.306;2023-02-21T06:22:58;7.70;;;5.23;;
10315;SDS011;5203;48.976;8.306;2023-02-21T06:25:23;6.23;;;5.63;;
10315;SDS011;5203;48.976;8.306;2023-02-21T06:27:49;6.90;;;6.20;;
10315;SDS011;5203;48.976;8.306;2023-02-21T06:30:15;7.23;;;6.50;;
10315;SDS011;5203;48.976;8.306;2023-02-21T06:32:41;6.43;;;5.83;;
10315;SDS011;5203;48.976;8.306;2023-02-21T06:35:07;9.13;;;6.47;;
10315;SDS011;5203;48.976;8.306;2023-02-21T06:37:33;7.03;;;6.00;;
10315;SDS011;5203;48.976;8.306;2023-02-21T06:39:59;7.53;;;5.90;;
10315;SDS011;5203;48.976;8.306;2023-02-21T06:42:24;8.10;;;6.90;;
10315;SDS011;5203;48.976;8.306;2023-02-21T06:44:51;7.93;;;6.20;;
10315;SDS011;5203;48.976;8.306;2023-02-21T06:47:17;7.37;;;6.53;;
10315;SDS011;5203;48.976;8.306;2023-02-21T06:49:43;7.73;;;6.80;;
10315;SDS011;5203;48.976;8.306;2023-02-21T06:52:08;7.70;;;6.17;;
10315;SDS011;5203;48.976;8.306;2023-02-21T06:54:34;6.60;;;6.00;;
10315;SDS011;5203;48.976;8.306;2023-02-21T06:57:00;8.77;;;6.53;;
10315;SDS011;5203;48.976;8.306;2023-02-21T06:59:26;7.57;;;6.10;;
10315;SDS011;5203;48.976;8.306;2023-02-21T07:01:53;9.67;;;7.00;;
10315;SDS011;5203;48.976;8.306;2023-02-21T07:04:19;6.63;;;6.03;;
10315;SDS011;5203;48.976;8.306;2023-02-21T07:06:44;7.73;;;6.07;;
10315;SDS011;5203;48.976;8.306;2023-02-21T07:09:10;8.20;;;5.87;;
10315;SDS011;5203;48.976;8.306;2023-02-21T07:11:36;7.23;;;5.57;;
10315;SDS011;5203;48.976;8.306;2023-02-21T07:14:02;6.67;;;6.00;;
10315;SDS011;5203;48.976;8.306;2023-02-21T07:16:27;9.37;;;6.67;;
10315;SDS011;5203;48.976;8.306;2023-02-21T07:18:53;8.57;;;6.70;;
10315;SDS011;5203;48.976;8.306;2023-02-21T07:21:18;8.87;;;6.43;;
10315;SDS011;5203;48.976;8.306;2023-02-21T07:23:46;11.63;;;7.17;;
10315;SDS011;5203;48.976;8.306;2023-02-21T07:26:12;7.33;;;6.63;;
10315;SDS011;5203;48.976;8.306;2023-02-21T07:28:38;7.90;;;7.10;;
10315;SDS011;5203;48.976;8.306;2023-02-21T07:31:04;7.47;;;6.70;;
10315;SDS011;5203;48.976;8.306;2023-02-21T07:33:29;8.70;;;6.63;;
10315;SDS011;5203;48.976;8.306;2023-02-21T07:35:55;9.43;;;7.03;;
10315;SDS011;5203;48.976;8.306;2023-02-21T07:38:22;9.30;;;7.20;;
10315;SDS011;5203;48.976;8.306;2023-02-21T07:40:50;8.37;;;7.33;;
10315;SDS011;5203;48.976;8.306;2023-02-21T07:43:18;8.37;;;7.23;;
10315;SDS011;5203;48.976;8.306;2023-02-21T07:45:44;7.30;;;6.60;;
10315;SDS011;5203;48.976;8.306;2023-02-21T07:48:10;8.27;;;6.63;;
10315;SDS011;5203;48.976;8.306;2023-02-21T07:50:38;7.97;;;6.83;;
10315;SDS011;5203;48.976;8.306;2023-02-21T07:53:08;9.03;;;6.87;;
10315;SDS011;5203;48.976;8.306;2023-02-21T07:55:34;10.77;;;7.43;;
10315;SDS011;5203;48.976;8.306;2023-02-21T07:58:00;8.30;;;7.50;;
10315;SDS011;5203;48.976;8.306;2023-02-21T08:00:26;9.57;;;7.90;;
10315;SDS011;5203;48.976;8.306;2023-02-21T08:02:52;10.33;;;8.80;;
10315;SDS011;5203;48.976;8.306;2023-02-21T08:05:18;11.90;;;7.90;;
10315;SDS011;5203;48.976;8.306;2023-02-21T08:07:45;11.20;;;8.70;;
10315;SDS011;5203;48.976;8.306;2023-02-21T08:10:13;9.80;;;8.80;;
10315;SDS011;5203;48.976;8.306;2023-02-21T08:12:47;10.53;;;8.50;;
10315;SDS011;5203;48.976;8.306;2023-02-21T08:15:13;8.87;;;7.70;;
10315;SDS011;5203;48.976;8.306;2023-02-21T08:17:39;9.53;;;8.53;;
10315;SDS011;5203;48.976;8.306;2023-02-21T08:20:05;9.33;;;8.10;;
10315;SDS011;5203;48.976;8.306;2023-02-21T08:22:32;10.47;;;7.80;;
10315;SDS011;5203;48.976;8.306;2023-02-21T08:24:58;12.57;;;7.53;;
10315;SDS011;5203;48.976;8.306;2023-02-21T08:27:23;7.67;;;6.90;;
10315;SDS011;5203;48.976;8.306;2023-02-21T08:29:51;10.37;;;7.90;;
10315;SDS011;5203;48.976;8.306;2023-02-21T08:32:17;8.80;;;6.90;;
10315;SDS011;5203;48.976;8.306;2023-02-21T08:34:44;11.63;;;7.40;;
10315;SDS011;5203;48.976;8.306;2023-02-21T08:37:11;9.10;;;7.10;;
10315;SDS011;5203;48.976;8.306;2023-02-21T08:39:47;8.40;;;7.60;;
10315;SDS011;5203;48.976;8.306;2023-02-21T08:42:16;8.73;;;6.67;;
10315;SDS011;5203;48.976;8.306;2023-02-21T08:44:42;8.97;;;7.10;;
10315;SDS011;5203;48.976;8.306;2023-02-21T08:47:09;8.70;;;7.57;;
10315;SDS011;5203;48.976;8.306;2023-02-21T08:49:35;9.47;;;7.77;;
10315;SDS011;5203;48.976;8.306;2023-02-21T08:52:04;8.60;;;7.70;;
10315;SDS011;5203;48.976;8.306;2023-02-21T08:54:30;10.20;;;7.67;;
10315;SDS011;5203;48.976;8.306;2023-02-21T08:56:56;10.10;;;7.93;;
10315;SDS011;5203;48.976;8.306;2023-02-21T08:59:22;8.73;;;7.73;;
10315;SDS011;5203;48.976;8.306;2023-02-21T09:01:49;8.83;;;7.93;;
10315;SDS011;5203;48.976;8.306;2023-02-21T09:04:14;9.03;;;8.13;;
10315;SDS011;5203;48.976;8.306;2023-02-21T09:06:40;11.90;;;8.27;;
10315;SDS011;5203;48.976;8.306;2023-02-21T09:09:06;8.00;;;7.20;;
10315;SDS011;5203;48.976;8.306;2023-02-21T09:11:31;9.40;;;8.33;;
10315;SDS011;5203;48.976;8.306;2023-02-21T09:13:57;8.23;;;7.50;;
10315;SDS011;5203;48.976;8.306;2023-02-21T09:16:23;9.87;;;7.73;;
10315;SDS011;5203;48.976;8.306;2023-02-21T09:18:55;11.07;;;7.70;;
10315;SDS011;5203;48.976;8.306;2023-02-21T09:21:23;9.87;;;7.93;;
10315;SDS011;5203;48.976;8.306;2023-02-21T09:23:53;15.47;;;8.43;;
10315;SDS011;5203;48.976;8.306;2023-02-21T09:26:20;9.00;;;7.93;;
10315;SDS011;5203;48.976;8.306;2023-02-21T09:28:48;9.03;;;7.73;;
10315;SDS011;5203;48.976;8.306;2023-02-21T09:31:15;8.20;;;7.40;;
10315;SDS011;5203;48.976;8.306;2023-02-21T09:33:40;8.27;;;7.40;;
10315;SDS011;5203;48.976;8.306;2023-02-21T09:36:09;7.80;;;7.03;;
10315;SDS011;5203;48.976;8.306;2023-02-21T09:38:35;7.87;;;7.07;;
10315;SDS011;5203;48.976;8.306;2023-02-21T09:41:01;7.90;;;6.50;;
10315;SDS011;5203;48.976;8.306;2023-02-21T09:43:33;7.47;;;6.50;;
10315;SDS011;5203;48.976;8.306;2023-02-21T09:46:17;6.53;;;5.93;;
10315;SDS011;5203;48.976;8.306;2023-02-21T09:49:05;6.87;;;6.03;;
10315;SDS011;5203;48.976;8.306;2023-02-21T09:51:37;7.73;;;6.37;;
10315;SDS011;5203;48.976;8.306;2023-02-21T09:54:08;7.97;;;6.10;;
10315;SDS011;5203;48.976;8.306;2023-02-21T09:56:57;8.07;;;6.17;;
10315;SDS011;5203;48.976;8.306;2023-02-21T09:59:25;6.57;;;5.87;;
10315;SDS011;5203;48.976;8.306;2023-02-21T10:02:28;8.83;;;6.43;;
10315;SDS011;5203;48.976;8.306;2023-02-21T10:05:16;9.43;;;6.70;;
10315;SDS011;5203;48.976;8.306;2023-02-21T10:21:30;8.37;;;6.23;;
10315;SDS011;5203;48.976;8.306;2023-02-21T10:24:02;8.93;;;6.90;;
10315;SDS011;5203;48.976;8.306;2023-02-21T10:26:41;7.17;;;6.53;;
10315;SDS011;5203;48.976;8.306;2023-02-21T10:29:22;7.00;;;6.03;;
10315;SDS011;5203;48.976;8.306;2023-02-21T10:31:56;7.47;;;6.77;;
10315;SDS011;5203;48.976;8.306;2023-02-21T10:34:27;8.10;;;6.60;;
10315;SDS011;5203;48.976;8.306;2023-02-21T10:36:56;8.50;;;6.60;;
10315;SDS011;5203;48.976;8.306;2023-02-21T10:39:35;11.90;;;7.47;;
10315;SDS011;5203;48.976;8.306;2023-02-21T10:42:11;7.27;;;6.20;;
10315;SDS011;5203;48.976;8.306;2023-02-21T10:44:45;8.10;;;6.33;;
10315;SDS011;5203;48.976;8.306;2023-02-21T10:49:49;7.27;;;6.13;;
10315;SDS011;5203;48.976;8.306;2023-02-21T10:52:23;8.97;;;6.60;;
10315;SDS011;5203;48.976;8.306;2023-02-21T10:55:06;7.23;;;6.53;;
10315;SDS011;5203;48.976;8.306;2023-02-21T10:57:38;6.93;;;5.97;;
10315;SDS011;5203;48.976;8.306;2023-02-21T11:00:07;8.67;;;6.73;;
10315;SDS011;5203;48.976;8.306;2023-02-21T11:05:16;6.77;;;5.87;;
10315;SDS011;5203;48.976;8.306;2023-02-21T11:08:01;8.13;;;6.70;;
10315;SDS011;5203;48.976;8.306;2023-02-21T11:15:27;9.93;;;6.60;;
10315;SDS011;5203;48.976;8.306;2023-02-21T11:20:41;6.23;;;5.70;;
10315;SDS011;5203;48.976;8.306;2023-02-21T11:23:17;6.87;;;6.27;;
10315;SDS011;5203;48.976;8.306;2023-02-21T11:25:43;7.97;;;6.43;;
10315;SDS011;5203;48.976;8.306;2023-02-21T11:30:47;7.90;;;7.20;;
10315;SDS011;5203;48.976;8.306;2023-02-21T11:33:23;8.87;;;7.80;;
10315;SDS011;5203;48.976;8.306;2023-02-21T11:35:50;8.60;;;7.07;;
10315;SDS011;5203;48.976;8.306;2023-02-21T11:44:01;7.23;;;6.60;;
10315;SDS011;5203;48.976;8.306;2023-02-21T11:46:49;8.00;;;6.03;;
10315;SDS011;5203;48.976;8.306;2023-02-21T11:52:11;7.00;;;6.40;;
10315;SDS011;5203;48.976;8.306;2023-02-21T11:54:43;6.90;;;6.30;;
10315;SDS011;5203;48.976;8.306;2023-02-21T11:57:16;8.47;;;6.33;;
10315;SDS011;5203;48.976;8.306;2023-02-21T12:05:58;5.67;;;5.17;;
10315;SDS011;5203;48.976;8.306;2023-02-21T12:09:00;9.70;;;5.90;;
10315;SDS011;5203;48.976;8.306;2023-02-21T12:20:07;7.97;;;5.30;;
10315;SDS011;5203;48.976;8.306;2023-02-21T12:31:32;7.23;;;5.67;;
10315;SDS011;5203;48.976;8.306;2023-02-21T12:34:16;6.13;;;4.90;;
10315;SDS011;5203;48.976;8.306;2023-02-21T12:48:10;12.32;;;6.20;;
10315;SDS011;5203;48.976;8.306;2023-02-21T12:50:43;6.05;;;5.55;;
10315;SDS011;5203;48.976;8.306;2023-02-21T12:53:23;6.10;;;5.53;;
10315;SDS011;5203;48.976;8.306;2023-02-21T12:55:57;7.38;;;5.80;;
10315;SDS011;5203;48.976;8.306;2023-02-21T13:01:07;7.40;;;5.85;;
10315;SDS011;5203;48.976;8.306;2023-02-21T13:08:52;6.15;;;5.55;;
10315;SDS011;5203;48.976;8.306;2023-02-21T13:13:56;6.88;;;5.25;;
10315;SDS011;5203;48.976;8.306;2023-02-21T13:16:24;5.03;;;4.55;;
10315;SDS011;5203;48.976;8.306;2023-02-21T13:18:55;9.13;;;5.88;;
10315;SDS011;5203;48.976;8.306;2023-02-21T13:24:22;5.53;;;4.97;;
10315;SDS011;5203;48.976;8.306;2023-02-21T13:29:49;9.45;;;5.55;;
10315;SDS011;5203;48.976;8.306;2023-02-21T13:32:16;7.45;;;5.22;;
10315;SDS011;5203;48.976;8.306;2023-02-21T13:34:47;5.28;;;4.78;;
10315;SDS011;5203;48.976;8.306;2023-02-21T13:37:18;5.60;;;5.10;;
10315;SDS011;5203;48.976;8.306;2023-02-21T13:40:00;5.55;;;4.80;;
10315;SDS011;5203;48.976;8.306;2023-02-21T13:42:35;5.32;;;4.80;;
10315;SDS011;5203;48.976;8.306;2023-02-21T13:45:09;4.88;;;4.30;;
10315;SDS011;5203;48.976;8.306;2023-02-21T13:55:33;6.30;;;5.10;;
10315;SDS011;5203;48.976;8.306;2023-02-21T14:03:01;4.32;;;4.00;;
10315;SDS011;5203;48.976;8.306;2023-02-21T14:13:33;4.57;;;4.28;;
10315;SDS011;5203;48.976;8.306;2023-02-21T14:16:08;4.82;;;4.50;;
10315;SDS011;5203;48.976;8.306;2023-02-21T14:18:41;5.40;;;4.90;;
10315;SDS011;5203;48.976;8.306;2023-02-21T14:23:58;4.65;;;4.25;;
10315;SDS011;5203;48.976;8.306;2023-02-21T14:29:09;5.18;;;4.53;;
10315;SDS011;5203;48.976;8.306;2023-02-21T14:31:45;4.68;;;4.28;;
10315;SDS011;5203;48.976;8.306;2023-02-21T14:51:30;4.53;;;3.95;;
10315;SDS011;5203;48.976;8.306;2023-02-21T14:54:15;3.85;;;3.65;;
10315;SDS011;5203;48.976;8.306;2023-02-21T15:12:49;4.32;;;3.55;;
10315;SDS011;5203;48.976;8.306;2023-02-21T15:18:03;4.35;;;4.03;;
10315;SDS011;5203;48.976;8.306;2023-02-21T15:20:46;4.00;;;3.65;;
10315;SDS011;5203;48.976;8.306;2023-02-21T15:23:35;4.10;;;3.80;;
10315;SDS011;5203;48.976;8.306;2023-02-21T15:31:34;3.30;;;3.10;;
10315;SDS011;5203;48.976;8.306;2023-02-21T15:34:17;6.65;;;3.53;;
10315;SDS011;5203;48.976;8.306;2023-02-21T15:36:43;4.13;;;3.83;;
10315;SDS011;5203;48.976;8.306;2023-02-21T15:41:58;4.60;;;3.40;;
10315;SDS011;5203;48.976;8.306;2023-02-21T15:47:03;3.08;;;2.88;;
10315;SDS011;5203;48.976;8.306;2023-02-21T15:49:34;3.67;;;3.40;;
10315;SDS011;5203;48.976;8.306;2023-02-21T15:52:25;3.50;;;3.17;;
10315;SDS011;5203;48.976;8.306;2023-02-21T16:00:29;3.30;;;3.10;;
10315;SDS011;5203;48.976;8.306;2023-02-21T16:05:49;3.80;;;3.40;;
10315;SDS011;5203;48.976;8.306;2023-02-21T16:08:15;3.80;;;3.60;;
10315;SDS011;5203;48.976;8.306;2023-02-21T16:10:41;3.97;;;3.67;;
10315;SDS011;5203;48.976;8.306;2023-02-21T16:13:07;7.47;;;4.00;;
10315;SDS011;5203;48.976;8.306;2023-02-21T16:15:34;3.83;;;3.50;;
10315;SDS011;5203;48.976;8.306;2023-02-21T16:18:02;5.30;;;4.03;;
10315;SDS011;5203;48.976;8.306;2023-02-21T16:20:34;3.65;;;3.40;;
10315;SDS011;5203;48.976;8.306;2023-02-21T16:23:11;3.70;;;3.38;;
10315;SDS011;5203;48.976;8.306;2023-02-21T16:28:42;9.00;;;4.07;;
10315;SDS011;5203;48.976;8.306;2023-02-21T16:31:13;6.85;;;5.22;;
10315;SDS011;5203;48.976;8.306;2023-02-21T16:33:40;9.23;;;7.50;;
10315;SDS011;5203;48.976;8.306;2023-02-21T16:36:07;10.30;;;9.35;;
10315;SDS011;5203;48.976;8.306;2023-02-21T16:38:45;11.20;;;9.98;;
10315;SDS011;5203;48.976;8.306;2023-02-21T16:41:12;12.65;;;11.43;;
10315;SDS011;5203;48.976;8.306;2023-02-21T16:43:38;10.60;;;9.32;;
10315;SDS011;5203;48.976;8.306;2023-02-21T16:46:03;19.02;;;9.48;;
10315;SDS011;5203;48.976;8.306;2023-02-21T16:48:29;7.70;;;6.60;;
10315;SDS011;5203;48.976;8.306;2023-02-21T16:50:59;6.45;;;5.85;;
10315;SDS011;5203;48.976;8.306;2023-02-21T16:53:27;5.57;;;5.07;;
10315;SDS011;5203;48.976;8.306;2023-02-21T16:55:53;6.60;;;5.95;;
10315;SDS011;5203;48.976;8.306;2023-02-21T16:58:21;9.80;;;8.90;;
10315;SDS011;5203;48.976;8.306;2023-02-21T17:00:52;10.00;;;8.98;;
10315;SDS011;5203;48.976;8.306;2023-02-21T17:03:20;11.60;;;8.98;;
10315;SDS011;5203;48.976;8.306;2023-02-21T17:05:47;9.05;;;8.15;;
10315;SDS011;5203;48.976;8.306;2023-02-21T17:08:15;9.35;;;7.30;;
10315;SDS011;5203;48.976;8.306;2023-02-21T17:10:40;6.90;;;6.18;;
10315;SDS011;5203;48.976;8.306;2023-02-21T17:13:06;19.00;;;8.63;;
10315;SDS011;5203;48.976;8.306;2023-02-21T17:15:32;11.02;;;7.75;;
10315;SDS011;5203;48.976;8.306;2023-02-21T17:17:58;8.57;;;7.53;;
10315;SDS011;5203;48.976;8.306;2023-02-21T17:20:24;8.20;;;7.40;;
10315;SDS011;5203;48.976;8.306;2023-02-21T17:22:51;8.82;;;7.93;;
10315;SDS011;5203;48.976;8.306;2023-02-21T17:25:17;13.40;;;7.63;;
10315;SDS011;5203;48.976;8.306;2023-02-21T17:27:44;16.85;;;9.00;;
10315;SDS011;5203;48.976;8.306;2023-02-21T17:30:10;7.97;;;7.13;;
10315;SDS011;5203;48.976;8.306;2023-02-21T17:32:36;8.13;;;6.68;;
10315;SDS011;5203;48.976;8.306;2023-02-21T17:35:03;8.05;;;7.32;;
10315;SDS011;5203;48.976;8.306;2023-02-21T17:37:29;8.35;;;7.47;;
10315;SDS011;5203;48.976;8.306;2023-02-21T17:39:54;8.02;;;7.32;;
10315;SDS011;5203;48.976;8.306;2023-02-21T17:42:21;7.97;;;7.25;;
10315;SDS011;5203;48.976;8.306;2023-02-21T17:44:47;7.88;;;7.15;;
10315;SDS011;5203;48.976;8.306;2023-02-21T17:47:16;8.93;;;8.13;;
10315;SDS011;5203;48.976;8.306;2023-02-21T17:49:50;8.57;;;7.78;;
10315;SDS011;5203;48.976;8.306;2023-02-21T17:52:18;8.57;;;7.78;;
10315;SDS011;5203;48.976;8.306;2023-02-21T17:54:44;10.57;;;7.53;;
10315;SDS011;5203;48.976;8.306;2023-02-21T17:57:10;8.20;;;7.50;;
10315;SDS011;5203;48.976;8.306;2023-02-21T17:59:35;10.90;;;9.80;;
10315;SDS011;5203;48.976;8.306;2023-02-21T18:02:02;12.77;;;11.35;;
10315;SDS011;5203;48.976;8.306;2023-02-21T18:04:28;13.88;;;12.38;;
10315;SDS011;5203;48.976;8.306;2023-02-21T18:06:53;12.05;;;10.95;;
10315;SDS011;5203;48.976;8.306;2023-02-21T18:09:19;12.02;;;10.93;;
10315;SDS011;5203;48.976;8.306;2023-02-21T18:11:48;11.83;;;10.63;;
10315;SDS011;5203;48.976;8.306;2023-02-21T18:14:15;10.53;;;9.53;;
10315;SDS011;5203;48.976;8.306;2023-02-21T18:16:41;9.33;;;8.53;;
10315;SDS011;5203;48.976;8.306;2023-02-21T18:19:07;9.33;;;8.53;;
10315;SDS011;5203;48.976;8.306;2023-02-21T18:21:33;11.77;;;9.83;;
10315;SDS011;5203;48.976;8.306;2023-02-21T18:24:08;14.63;;;13.10;;
10315;SDS011;5203;48.976;8.306;2023-02-21T18:26:35;14.30;;;12.33;;
10315;SDS011;5203;48.976;8.306;2023-02-21T18:29:02;13.77;;;12.47;;
10315;SDS011;5203;48.976;8.306;2023-02-21T18:31:28;9.37;;;8.30;;
10315;SDS011;5203;48.976;8.306;2023-02-21T18:33:54;11.03;;;10.03;;
10315;SDS011;5203;48.976;8.306;2023-02-21T18:36:20;14.10;;;10.77;;
10315;SDS011;5203;48.976;8.306;2023-02-21T18:38:46;10.87;;;9.87;;
10315;SDS011;5203;48.976;8.306;2023-02-21T18:41:14;9.97;;;9.07;;